Time;durP1;ratioP1;P1;durP2;ratioP2;P2;SDS_P1;SDS_P2;PMS_P1;PMS_P2;Temp;Humidity;BMP_temperature;BMP_pressure;BME280_temperature;BME280_humidity;BME280_pressure;Samples;Min_cycle;Max_cycle;Signal;HPM_P1;HPM_P2
2022/01/18 00:01:46;;;;;;;14.45;2.30;;;4.10;99.90;;;;;;5011487;28;20042;-49
2022/01/18 00:04:11;;;;;;;14.55;2.67;;;4.10;99.90;;;;;;5011904;28;20033;-50
2022/01/18 00:06:40;;;;;;;22.55;4.32;;;4.10;99.90;;;;;;5010776;28;20029;-53
2022/01/18 00:09:06;;;;;;;20.73;3.60;;;4.10;99.90;;;;;;5011862;28;20145;-49
2022/01/18 00:11:40;;;;;;;16.33;3.38;;;4.10;99.90;;;;;;5011595;28;20030;-50
2022/01/18 00:14:13;;;;;;;17.40;3.80;;;4.10;99.90;;;;;;5011156;28;20022;-52
2022/01/18 00:16:40;;;;;;;17.48;4.40;;;4.20;99.90;;;;;;5011808;28;20516;-52
2022/01/18 00:19:10;;;;;;;15.93;3.78;;;4.10;99.90;;;;;;5011564;28;20496;-52
2022/01/18 00:21:50;;;;;;;19.58;3.65;;;4.10;99.90;;;;;;5010579;28;20029;-50
2022/01/18 00:24:17;;;;;;;14.05;4.72;;;4.10;99.90;;;;;;5011023;28;20153;-51
2022/01/18 00:26:42;;;;;;;11.98;3.22;;;4.20;99.90;;;;;;5011786;28;20030;-54
2022/01/18 00:29:12;;;;;;;11.23;2.17;;;4.20;99.90;;;;;;5010883;28;20033;-49
2022/01/18 00:34:33;;;;;;;20.60;2.85;;;4.30;99.90;;;;;;5010871;28;20029;-55
2022/01/18 00:37:11;;;;;;;12.13;3.20;;;4.20;99.90;;;;;;5009981;28;20103;-57
2022/01/18 00:39:40;;;;;;;11.05;2.60;;;4.30;99.90;;;;;;5010461;28;20108;-52
2022/01/18 00:42:09;;;;;;;8.57;2.75;;;4.40;99.90;;;;;;5009547;28;20042;-53
2022/01/18 00:44:35;;;;;;;12.68;3.42;;;4.50;99.90;;;;;;5011297;28;20428;-52
2022/01/18 00:47:01;;;;;;;18.08;3.92;;;4.50;99.90;;;;;;5010877;28;20030;-52
2022/01/18 00:49:27;;;;;;;12.43;3.22;;;4.50;99.90;;;;;;5010389;28;20265;-53
2022/01/18 00:51:56;;;;;;;16.10;3.08;;;4.60;99.90;;;;;;5010752;28;20034;-52
2022/01/18 00:54:26;;;;;;;13.55;3.05;;;4.60;99.90;;;;;;5011322;28;20100;-54
2022/01/18 00:56:53;;;;;;;16.35;2.47;;;4.60;99.90;;;;;;5010756;28;20097;-53
2022/01/18 00:59:20;;;;;;;14.45;2.75;;;4.60;99.90;;;;;;5010106;28;20036;-52
2022/01/18 01:01:46;;;;;;;10.95;3.90;;;4.60;99.90;;;;;;5010021;28;21765;-56
2022/01/18 01:04:12;;;;;;;15.00;3.17;;;4.60;99.90;;;;;;5010571;28;20121;-53
2022/01/18 01:06:38;;;;;;;12.75;2.90;;;4.70;99.90;;;;;;5010427;28;20527;-54
2022/01/18 01:09:05;;;;;;;11.13;2.78;;;4.70;99.90;;;;;;4992778;28;20114;-51
2022/01/18 01:11:36;;;;;;;12.93;2.08;;;4.70;99.90;;;;;;5010200;28;20029;-52
2022/01/18 01:14:02;;;;;;;12.55;2.78;;;4.70;99.90;;;;;;5010057;28;20395;-52
2022/01/18 01:19:49;;;;;;;15.48;3.13;;;4.80;99.90;;;;;;5009931;28;20041;-50
2022/01/18 01:36:08;;;;;;;7.13;2.35;;;4.80;99.90;;;;;;5009872;28;20030;-52
2022/01/18 01:44:20;;;;;;;10.52;1.85;;;4.80;99.90;;;;;;5009100;28;20114;-52
2022/01/18 01:46:46;;;;;;;10.27;2.33;;;4.70;99.90;;;;;;5009807;28;20037;-50
2022/01/18 01:49:14;;;;;;;7.25;1.75;;;4.70;99.90;;;;;;5010054;28;20026;-50
2022/01/18 01:51:41;;;;;;;6.18;1.90;;;4.70;99.90;;;;;;5009250;28;20048;-54
2022/01/18 01:54:10;;;;;;;9.02;1.83;;;4.80;99.90;;;;;;4991057;28;20042;-55
2022/01/18 01:56:36;;;;;;;10.00;1.83;;;4.80;99.90;;;;;;5009293;28;20046;-55
2022/01/18 01:59:03;;;;;;;9.68;1.85;;;4.80;99.90;;;;;;5007393;28;20029;-55
2022/01/18 02:01:29;;;;;;;7.30;2.15;;;4.80;99.90;;;;;;5005914;28;20103;-53
2022/01/18 02:03:56;;;;;;;7.28;2.55;;;4.80;99.90;;;;;;5006524;28;20385;-52
2022/01/18 02:06:23;;;;;;;5.57;1.60;;;4.80;99.90;;;;;;5009259;28;20707;-52
2022/01/18 02:08:49;;;;;;;5.68;1.45;;;4.90;99.90;;;;;;4991959;28;20034;-52
2022/01/18 02:11:14;;;;;;;8.32;1.90;;;4.90;99.90;;;;;;5008906;28;20485;-55
2022/01/18 02:13:40;;;;;;;5.13;1.25;;;4.80;99.90;;;;;;5008608;28;20045;-56
2022/01/18 02:24:05;;;;;;;6.55;1.65;;;4.90;99.90;;;;;;5009141;28;20407;-58
2022/01/18 02:26:31;;;;;;;9.35;1.63;;;4.80;99.90;;;;;;5009204;28;20025;-55
2022/01/18 02:29:01;;;;;;;5.90;1.00;;;4.80;99.90;;;;;;4990909;28;20404;-53
2022/01/18 02:31:28;;;;;;;11.15;1.52;;;4.90;99.90;;;;;;5008099;28;20619;-51
2022/01/18 02:33:53;;;;;;;6.55;1.45;;;4.90;99.90;;;;;;5008396;28;20037;-52
2022/01/18 02:36:19;;;;;;;6.25;1.38;;;4.90;99.90;;;;;;5009130;28;20018;-54
2022/01/18 02:38:47;;;;;;;8.68;1.92;;;4.90;99.90;;;;;;5008902;28;20022;-55
2022/01/18 02:41:30;;;;;;;10.77;1.55;;;4.80;99.90;;;;;;5008352;28;20022;-52
2022/01/18 02:43:57;;;;;;;9.07;1.60;;;4.90;99.90;;;;;;5008506;28;20022;-52
2022/01/18 02:46:22;;;;;;;6.93;1.38;;;4.90;99.90;;;;;;5008765;28;20022;-51
2022/01/18 02:48:48;;;;;;;4.70;1.50;;;5.00;99.90;;;;;;5009128;28;20108;-49
2022/01/18 02:51:14;;;;;;;6.32;1.15;;;5.00;99.90;;;;;;5008447;28;20022;-55
2022/01/18 02:54:02;;;;;;;9.05;1.95;;;5.00;99.90;;;;;;5009215;28;20483;-49
2022/01/18 02:56:33;;;;;;;9.80;1.15;;;5.00;99.90;;;;;;5008658;28;20022;-49
2022/01/18 02:59:24;;;;;;;5.40;1.58;;;5.00;99.90;;;;;;5008529;28;20292;-49
2022/01/18 03:04:36;;;;;;;5.90;1.23;;;5.10;99.90;;;;;;5008593;28;20168;-54
2022/01/18 03:07:02;;;;;;;3.35;1.20;;;5.10;99.90;;;;;;5013636;28;20491;-52
2022/01/18 03:09:28;;;;;;;8.63;1.58;;;5.10;99.90;;;;;;4997636;28;20089;-52
2022/01/18 03:11:53;;;;;;;4.85;1.27;;;5.10;99.90;;;;;;5014977;28;20421;-54
2022/01/18 03:14:19;;;;;;;4.78;1.10;;;5.10;99.90;;;;;;5015417;28;20071;-52
2022/01/18 03:16:45;;;;;;;10.50;2.30;;;5.20;99.90;;;;;;5015372;28;20408;-52
2022/01/18 03:19:10;;;;;;;7.32;1.52;;;5.20;99.90;;;;;;5015158;28;20145;-56
2022/01/18 03:21:36;;;;;;;5.25;1.23;;;5.20;99.90;;;;;;5015135;28;20097;-54
2022/01/18 03:24:31;;;;;;;3.58;1.13;;;5.30;99.90;;;;;;5015129;28;20022;-50
2022/01/18 03:29:41;;;;;;;7.55;1.65;;;5.40;99.90;;;;;;5015485;28;20088;-51
2022/01/18 03:32:07;;;;;;;3.78;0.82;;;5.40;99.90;;;;;;5014927;28;20021;-54
2022/01/18 03:34:33;;;;;;;3.40;1.25;;;5.30;99.90;;;;;;5015014;28;20470;-52
2022/01/18 03:36:59;;;;;;;11.93;1.90;;;5.30;99.90;;;;;;5014326;28;20079;-53
2022/01/18 03:39:25;;;;;;;3.97;1.00;;;5.30;99.90;;;;;;5014733;28;20029;-54
2022/01/18 03:41:55;;;;;;;7.45;0.90;;;5.30;99.90;;;;;;5014688;28;20416;-56
2022/01/18 03:44:25;;;;;;;10.50;1.27;;;5.20;99.90;;;;;;5014255;28;20024;-53
2022/01/18 03:46:53;;;;;;;6.13;1.65;;;5.20;99.90;;;;;;5014605;28;20037;-54
2022/01/18 03:49:22;;;;;;;3.03;0.80;;;5.20;99.90;;;;;;5015258;28;20021;-57
2022/01/18 03:51:48;;;;;;;11.73;1.42;;;5.20;99.90;;;;;;5014822;28;20120;-50
2022/01/18 03:54:20;;;;;;;5.70;1.50;;;5.20;99.90;;;;;;5014468;28;20113;-54
2022/01/18 03:56:46;;;;;;;6.88;0.93;;;5.20;99.90;;;;;;5014447;28;20041;-52
2022/01/18 03:59:11;;;;;;;4.32;1.25;;;5.10;99.90;;;;;;5014160;28;20026;-53
2022/01/18 04:01:37;;;;;;;4.47;1.38;;;5.10;99.90;;;;;;5014991;28;20037;-57
2022/01/18 04:04:02;;;;;;;4.68;0.70;;;5.10;99.90;;;;;;5014521;28;20029;-55
2022/01/18 04:06:28;;;;;;;6.75;1.08;;;5.10;99.90;;;;;;5014570;28;20064;-52
2022/01/18 04:08:53;;;;;;;5.32;1.17;;;5.10;99.90;;;;;;5013975;28;20030;-53
2022/01/18 04:11:19;;;;;;;9.95;1.45;;;5.10;99.90;;;;;;5014372;28;20084;-52
2022/01/18 04:13:44;;;;;;;5.55;0.90;;;5.10;99.90;;;;;;5014369;28;20033;-51
2022/01/18 04:16:10;;;;;;;3.70;1.38;;;5.10;99.90;;;;;;5015093;28;20026;-52
2022/01/18 04:18:51;;;;;;;3.78;0.90;;;5.10;99.90;;;;;;5010651;28;20022;-56
2022/01/18 04:29:11;;;;;;;2.97;0.77;;;5.10;99.90;;;;;;5011494;28;20477;-53
2022/01/18 04:31:38;;;;;;;7.20;1.40;;;5.10;99.90;;;;;;5011546;28;20476;-50
2022/01/18 04:34:03;;;;;;;4.75;0.80;;;5.10;99.90;;;;;;5011037;28;20562;-55
2022/01/18 04:36:29;;;;;;;3.33;0.90;;;5.00;99.90;;;;;;5010046;28;20030;-53
2022/01/18 04:38:56;;;;;;;4.22;1.30;;;5.00;99.90;;;;;;5010768;28;20030;-49
2022/01/18 04:41:27;;;;;;;7.35;1.48;;;5.10;99.90;;;;;;5010739;28;20025;-55
2022/01/18 04:49:11;;;;;;;2.90;0.75;;;5.10;99.90;;;;;;5011678;28;20032;-54
2022/01/18 04:51:38;;;;;;;2.97;0.68;;;5.10;99.90;;;;;;5010224;28;20514;-55
2022/01/18 04:54:08;;;;;;;6.78;1.17;;;5.10;99.90;;;;;;5010947;28;20080;-49
2022/01/18 04:59:00;;;;;;;6.35;1.65;;;5.00;99.90;;;;;;5011324;28;20057;-50
2022/01/18 05:01:26;;;;;;;3.58;0.60;;;5.00;99.90;;;;;;5010601;28;20030;-52
2022/01/18 05:03:52;;;;;;;2.90;0.93;;;5.00;99.90;;;;;;5010493;28;20084;-55
2022/01/18 05:06:19;;;;;;;4.15;1.20;;;5.00;99.90;;;;;;5010205;28;20057;-54
2022/01/18 05:08:45;;;;;;;5.68;0.80;;;5.00;99.90;;;;;;4992331;28;20026;-51
2022/01/18 05:11:14;;;;;;;4.93;1.08;;;5.00;99.90;;;;;;5010320;28;20045;-49
2022/01/18 05:16:40;;;;;;;6.63;1.30;;;5.00;99.90;;;;;;5010561;28;20562;-51
2022/01/18 05:19:28;;;;;;;3.30;1.17;;;5.00;99.90;;;;;;5010167;28;20056;-52
2022/01/18 05:24:25;;;;;;;5.28;0.93;;;5.00;99.90;;;;;;5009829;28;20022;-57
2022/01/18 05:26:52;;;;;;;3.80;0.80;;;5.00;99.90;;;;;;5010031;28;20042;-49
2022/01/18 05:29:18;;;;;;;5.13;1.33;;;5.00;99.90;;;;;;5009917;28;20034;-54
2022/01/18 05:31:44;;;;;;;3.20;0.98;;;4.90;99.90;;;;;;5010620;28;20409;-55
2022/01/18 05:34:10;;;;;;;5.57;1.40;;;4.90;99.90;;;;;;4991959;28;20492;-52
2022/01/18 05:36:36;;;;;;;7.97;1.33;;;5.00;99.90;;;;;;5010100;28;20117;-53
2022/01/18 05:39:02;;;;;;;6.68;0.98;;;5.00;99.90;;;;;;5009928;28;20369;-52
2022/01/18 05:41:28;;;;;;;5.43;1.73;;;5.00;99.90;;;;;;5009722;28;20045;-51
2022/01/18 05:43:53;;;;;;;4.50;1.38;;;4.90;99.90;;;;;;5009882;28;20026;-51
2022/01/18 05:46:19;;;;;;;1.88;0.52;;;4.90;99.90;;;;;;5010162;28;20033;-52
2022/01/18 05:48:44;;;;;;;6.30;1.05;;;4.90;99.90;;;;;;5009117;28;20117;-55
2022/01/18 05:51:10;;;;;;;8.68;1.55;;;4.90;99.90;;;;;;5010338;28;20108;-52
2022/01/18 05:53:36;;;;;;;7.95;1.65;;;4.90;99.90;;;;;;5009520;28;20037;-51
2022/01/18 05:56:03;;;;;;;3.58;0.80;;;4.90;99.90;;;;;;5009677;28;20057;-52
2022/01/18 05:58:29;;;;;;;9.52;1.73;;;4.90;99.90;;;;;;5009195;28;20037;-56
2022/01/18 06:00:55;;;;;;;4.60;1.00;;;4.90;99.90;;;;;;5009408;28;20025;-52
2022/01/18 06:03:52;;;;;;;2.22;1.17;;;4.90;99.90;;;;;;5009100;28;20112;-55
2022/01/18 06:09:01;;;;;;;6.10;1.38;;;4.90;99.90;;;;;;5009886;28;20088;-56
2022/01/18 06:11:27;;;;;;;4.95;1.10;;;4.90;99.90;;;;;;5009051;28;20448;-53
2022/01/18 06:13:53;;;;;;;6.82;1.60;;;4.90;99.90;;;;;;5009467;28;20049;-55
2022/01/18 06:16:18;;;;;;;8.32;2.25;;;4.90;99.90;;;;;;5009197;28;20105;-51
2022/01/18 06:18:44;;;;;;;9.25;1.40;;;4.90;99.90;;;;;;5009833;28;20118;-51
2022/01/18 06:21:11;;;;;;;4.82;1.30;;;4.90;99.90;;;;;;5009486;28;20104;-52
2022/01/18 06:23:36;;;;;;;7.57;2.42;;;4.90;99.90;;;;;;5009253;28;20034;-52
2022/01/18 06:26:03;;;;;;;8.77;2.80;;;4.90;99.90;;;;;;5008941;28;20036;-53
2022/01/18 06:28:30;;;;;;;9.65;2.47;;;4.90;99.90;;;;;;5009214;28;20488;-52
2022/01/18 06:30:56;;;;;;;6.72;1.95;;;4.90;99.90;;;;;;5008928;28;20753;-54
2022/01/18 06:33:21;;;;;;;7.95;2.25;;;5.00;99.90;;;;;;5008425;28;20053;-53
2022/01/18 06:35:47;;;;;;;6.88;2.58;;;5.00;99.90;;;;;;5008362;28;20030;-53
2022/01/18 06:38:13;;;;;;;10.00;3.35;;;5.00;99.90;;;;;;5008271;28;20188;-52
2022/01/18 06:40:39;;;;;;;8.05;1.98;;;5.00;99.90;;;;;;4990949;28;20030;-53
2022/01/18 06:43:05;;;;;;;10.98;2.28;;;5.00;99.90;;;;;;5008943;28;20282;-54
2022/01/18 06:45:31;;;;;;;7.25;2.05;;;5.00;99.90;;;;;;4990843;28;20088;-53
2022/01/18 06:47:57;;;;;;;9.27;3.38;;;5.00;99.90;;;;;;5008826;28;20492;-52
2022/01/18 06:50:23;;;;;;;11.90;3.42;;;5.00;99.90;;;;;;5008898;28;20028;-52
2022/01/18 06:52:48;;;;;;;11.25;2.92;;;5.00;99.90;;;;;;5008425;28;20065;-54
2022/01/18 06:55:14;;;;;;;9.25;2.80;;;5.10;99.90;;;;;;5007999;28;20040;-52
2022/01/18 06:57:39;;;;;;;11.73;3.45;;;5.10;99.90;;;;;;5008752;28;20045;-53
2022/01/18 07:00:06;;;;;;;13.65;3.22;;;5.10;99.90;;;;;;5008438;28;20061;-56
2022/01/18 07:02:32;;;;;;;12.07;3.05;;;5.10;99.90;;;;;;5007055;28;20045;-51
2022/01/18 07:04:58;;;;;;;7.75;2.88;;;5.10;99.90;;;;;;5008464;28;20388;-56
2022/01/18 07:07:23;;;;;;;21.02;4.03;;;5.10;99.90;;;;;;5009168;28;20080;-52
2022/01/18 07:09:50;;;;;;;13.10;4.18;;;5.10;99.90;;;;;;5009139;28;20022;-53
2022/01/18 07:12:17;;;;;;;7.50;3.10;;;5.10;99.90;;;;;;5008586;28;20084;-52
2022/01/18 07:14:44;;;;;;;8.40;3.25;;;5.10;99.90;;;;;;5008456;28;20064;-52
2022/01/18 07:17:10;;;;;;;13.05;4.45;;;5.10;99.90;;;;;;5008438;28;20495;-54
2022/01/18 07:19:37;;;;;;;13.65;3.45;;;5.10;99.90;;;;;;4991397;28;20535;-54
2022/01/18 07:22:03;;;;;;;16.60;4.25;;;5.10;99.90;;;;;;5007889;28;20029;-54
2022/01/18 07:24:44;;;;;;;14.07;3.90;;;5.10;99.90;;;;;;5008881;28;20018;-54
2022/01/18 07:27:11;;;;;;;14.13;3.97;;;5.10;99.90;;;;;;5007907;28;20026;-54
2022/01/18 07:29:38;;;;;;;13.93;4.28;;;5.10;99.90;;;;;;5008380;28;20034;-55
2022/01/18 07:32:05;;;;;;;11.48;4.55;;;5.10;99.90;;;;;;5008310;28;20018;-53
2022/01/18 07:34:33;;;;;;;13.23;4.32;;;5.10;99.90;;;;;;5008606;28;20030;-51
2022/01/18 07:36:59;;;;;;;11.45;4.28;;;5.10;99.90;;;;;;5008247;28;20050;-55
2022/01/18 07:39:24;;;;;;;11.82;4.75;;;5.10;99.90;;;;;;5008710;28;20088;-54
2022/01/18 07:41:50;;;;;;;10.88;4.50;;;5.10;99.90;;;;;;5008127;28;20444;-52
2022/01/18 07:44:15;;;;;;;15.85;4.03;;;5.10;99.90;;;;;;5007749;28;20519;-57
2022/01/18 07:46:41;;;;;;;16.25;4.28;;;5.10;99.90;;;;;;5008547;28;20129;-56
2022/01/18 07:49:07;;;;;;;17.42;4.68;;;5.10;99.90;;;;;;5008610;28;20042;-56
2022/01/18 07:51:32;;;;;;;10.93;4.78;;;5.20;99.90;;;;;;5008708;28;20101;-52
2022/01/18 07:53:58;;;;;;;13.50;4.90;;;5.20;99.90;;;;;;5010889;28;20036;-53
2022/01/18 07:56:23;;;;;;;13.90;4.18;;;5.20;99.90;;;;;;5012600;28;20022;-54
2022/01/18 07:58:49;;;;;;;13.10;4.00;;;5.20;99.90;;;;;;5012266;28;20030;-53
2022/01/18 08:01:14;;;;;;;13.25;4.85;;;5.20;99.90;;;;;;5011707;28;20034;-52
2022/01/18 08:03:40;;;;;;;14.85;4.07;;;5.20;99.90;;;;;;5011843;28;20096;-51
2022/01/18 08:06:05;;;;;;;15.63;5.07;;;5.20;99.90;;;;;;5011660;28;20523;-53
2022/01/18 08:08:32;;;;;;;17.42;4.97;;;5.20;99.90;;;;;;5011988;28;20076;-52
2022/01/18 08:10:58;;;;;;;13.02;4.55;;;5.20;99.90;;;;;;5011126;28;20033;-50
2022/01/18 08:13:28;;;;;;;13.73;3.70;;;5.20;99.90;;;;;;4994120;28;20022;-51
2022/01/18 08:16:10;;;;;;;17.17;4.57;;;5.20;99.90;;;;;;5011580;28;20124;-56
2022/01/18 08:18:35;;;;;;;19.85;4.38;;;5.20;99.90;;;;;;5012048;28;20025;-54
2022/01/18 08:21:01;;;;;;;24.33;5.53;;;5.30;99.90;;;;;;5011732;28;20029;-55
2022/01/18 08:23:27;;;;;;;18.73;4.63;;;5.30;99.90;;;;;;5011639;28;20484;-51
2022/01/18 08:25:52;;;;;;;17.13;4.55;;;5.30;99.90;;;;;;4993902;28;20084;-52
2022/01/18 08:28:18;;;;;;;21.17;5.18;;;5.40;99.90;;;;;;5011621;28;20018;-52
2022/01/18 08:30:43;;;;;;;16.55;4.65;;;5.40;99.90;;;;;;5011939;28;20156;-52
2022/01/18 08:33:09;;;;;;;9.77;3.88;;;5.40;99.90;;;;;;4993686;28;20041;-52
2022/01/18 08:35:37;;;;;;;14.50;4.47;;;5.40;99.90;;;;;;5010238;28;20606;-53
2022/01/18 08:38:03;;;;;;;20.20;4.13;;;5.50;99.90;;;;;;5011295;28;20028;-50
2022/01/18 08:40:29;;;;;;;16.13;4.07;;;5.50;99.90;;;;;;5011610;28;20021;-53
2022/01/18 08:42:54;;;;;;;17.63;4.50;;;5.50;99.90;;;;;;5010479;28;20038;-53
2022/01/18 08:45:20;;;;;;;19.65;3.83;;;5.50;99.90;;;;;;5010929;28;20492;-55
2022/01/18 08:47:45;;;;;;;24.05;5.50;;;5.50;99.90;;;;;;5010818;28;20547;-53
2022/01/18 08:50:11;;;;;;;17.30;4.78;;;5.50;99.90;;;;;;5010491;28;20041;-54
2022/01/18 08:52:38;;;;;;;23.23;4.95;;;5.60;99.90;;;;;;5010754;28;20049;-55
2022/01/18 08:55:04;;;;;;;14.18;3.72;;;5.60;99.90;;;;;;5010156;28;20086;-51
2022/01/18 08:57:29;;;;;;;19.58;5.25;;;5.60;99.90;;;;;;5011374;28;20080;-54
2022/01/18 08:59:55;;;;;;;19.55;5.80;;;5.60;99.90;;;;;;5010857;28;20495;-51
2022/01/18 09:02:21;;;;;;;24.75;5.63;;;5.60;99.90;;;;;;5010840;28;20022;-56
2022/01/18 09:04:46;;;;;;;18.08;5.55;;;5.70;99.90;;;;;;5010319;28;20845;-56
2022/01/18 09:07:12;;;;;;;19.65;5.13;;;5.70;99.90;;;;;;4993143;28;20542;-51
2022/01/18 09:09:42;;;;;;;18.33;5.88;;;5.70;99.90;;;;;;5009839;28;20085;-55
2022/01/18 09:12:11;;;;;;;23.15;6.10;;;5.80;99.90;;;;;;5010648;28;20030;-53
2022/01/18 09:14:37;;;;;;;31.63;6.13;;;5.80;99.90;;;;;;5010493;28;20290;-51
2022/01/18 09:17:04;;;;;;;23.13;5.63;;;5.80;99.90;;;;;;5010374;28;20033;-52
2022/01/18 09:19:29;;;;;;;12.40;4.45;;;5.80;99.90;;;;;;5010176;28;20036;-55
2022/01/18 09:21:57;;;;;;;19.55;4.70;;;5.80;99.90;;;;;;5010485;28;20026;-54
2022/01/18 09:24:23;;;;;;;18.42;4.28;;;5.90;99.90;;;;;;5010028;28;20065;-57
2022/01/18 09:26:48;;;;;;;23.55;6.18;;;5.90;99.90;;;;;;5010629;28;20037;-55
2022/01/18 09:29:14;;;;;;;14.20;3.80;;;5.90;99.90;;;;;;5010167;28;20026;-53
2022/01/18 09:31:40;;;;;;;17.15;4.53;;;5.90;99.90;;;;;;5009799;28;20018;-53
2022/01/18 09:34:06;;;;;;;16.05;4.32;;;5.90;99.90;;;;;;5009864;28;20037;-54
2022/01/18 09:36:31;;;;;;;24.75;3.88;;;6.00;99.90;;;;;;5010754;28;20096;-55
2022/01/18 09:38:59;;;;;;;21.33;4.50;;;6.00;99.90;;;;;;5010299;28;20037;-57
2022/01/18 09:41:30;;;;;;;17.58;4.25;;;6.00;99.90;;;;;;5010212;28;20021;-55
2022/01/18 09:43:57;;;;;;;16.88;3.10;;;6.10;99.90;;;;;;5009498;28;20159;-52
2022/01/18 09:46:25;;;;;;;17.40;3.78;;;6.10;99.90;;;;;;5009656;28;20030;-53
2022/01/18 09:48:55;;;;;;;18.92;3.75;;;6.10;99.90;;;;;;5009805;28;20037;-55
2022/01/18 09:51:22;;;;;;;15.75;3.42;;;6.10;99.90;;;;;;5010114;28;20053;-51
2022/01/18 09:53:47;;;;;;;16.63;3.28;;;6.10;99.90;;;;;;5009266;28;20038;-55
2022/01/18 09:56:15;;;;;;;19.50;4.07;;;6.20;99.90;;;;;;5009641;28;20038;-55
2022/01/18 09:58:40;;;;;;;14.27;3.03;;;6.20;99.90;;;;;;5009591;28;20026;-54
2022/01/18 10:01:06;;;;;;;13.95;3.53;;;6.30;99.90;;;;;;5009961;28;20052;-55
2022/01/18 10:03:35;;;;;;;18.30;3.30;;;6.30;99.90;;;;;;5009084;28;20036;-55
2022/01/18 10:06:02;;;;;;;10.75;2.78;;;6.30;99.90;;;;;;5009283;28;20018;-51
2022/01/18 10:08:28;;;;;;;20.38;4.13;;;6.30;99.90;;;;;;5009511;28;20026;-55
2022/01/18 10:10:57;;;;;;;9.82;3.33;;;6.30;99.90;;;;;;5009792;28;20117;-53
2022/01/18 10:13:24;;;;;;;15.68;4.22;;;6.30;99.90;;;;;;5009319;28;20560;-53
2022/01/18 10:16:04;;;;;;;15.43;3.25;;;6.40;99.90;;;;;;5008789;28;20044;-53
2022/01/18 10:18:36;;;;;;;15.35;3.22;;;6.40;99.90;;;;;;5008924;28;20033;-55
2022/01/18 10:21:02;;;;;;;14.25;2.50;;;6.40;99.90;;;;;;5009149;28;20030;-53
2022/01/18 10:23:28;;;;;;;13.23;4.20;;;6.40;99.90;;;;;;5008985;28;20092;-52
2022/01/18 10:25:54;;;;;;;18.10;3.60;;;6.50;99.90;;;;;;5009211;28;20022;-56
2022/01/18 10:28:31;;;;;;;15.20;3.58;;;6.50;99.90;;;;;;4991327;28;20415;-53
2022/01/18 10:31:00;;;;;;;13.98;3.72;;;6.50;99.90;;;;;;5008639;28;20021;-56
2022/01/18 10:33:28;;;;;;;9.88;2.85;;;6.50;99.90;;;;;;5009212;28;20025;-55
2022/01/18 10:36:11;;;;;;;13.10;2.95;;;6.60;99.90;;;;;;5008534;28;20107;-55
2022/01/18 10:38:44;;;;;;;9.20;2.80;;;6.50;99.90;;;;;;5009051;28;20041;-55
2022/01/18 10:41:28;;;;;;;12.45;3.15;;;6.60;99.90;;;;;;5008523;28;20165;-55
2022/01/18 10:44:13;;;;;;;12.32;2.85;;;6.60;99.90;;;;;;4990894;28;20436;-52
2022/01/18 10:46:52;;;;;;;11.77;3.25;;;6.60;99.90;;;;;;5008555;28;20041;-55
2022/01/18 10:49:39;;;;;;;10.90;3.20;;;6.60;99.90;;;;;;5008625;28;20018;-56
2022/01/18 10:52:11;;;;;;;14.07;3.40;;;6.60;99.90;;;;;;5008640;28;20030;-56
2022/01/18 10:54:42;;;;;;;14.02;3.45;;;6.70;99.90;;;;;;5009020;28;20500;-51
2022/01/18 10:57:11;;;;;;;10.80;2.22;;;6.70;99.90;;;;;;5009269;28;20030;-55
2022/01/18 10:59:38;;;;;;;9.07;2.42;;;6.70;99.90;;;;;;5008516;28;20057;-55
2022/01/18 11:02:13;;;;;;;14.20;2.72;;;6.70;99.90;;;;;;5008306;28;20045;-55
2022/01/18 11:04:40;;;;;;;9.00;2.67;;;6.80;99.90;;;;;;5008524;28;20029;-51
2022/01/18 11:07:05;;;;;;;8.52;1.88;;;6.80;99.90;;;;;;5008354;28;20029;-51
2022/01/18 11:09:32;;;;;;;12.43;2.20;;;6.80;99.90;;;;;;5008474;28;20076;-54
2022/01/18 11:11:58;;;;;;;10.82;2.10;;;6.80;99.90;;;;;;4990618;28;20044;-57
2022/01/18 11:14:25;;;;;;;9.10;2.05;;;6.80;99.90;;;;;;5008927;28;20112;-51
2022/01/18 11:16:55;;;;;;;8.48;2.08;;;6.90;99.90;;;;;;5007840;28;20030;-55
2022/01/18 11:21:48;;;;;;;12.25;1.90;;;6.90;99.90;;;;;;5007761;28;20454;-54
2022/01/18 11:24:15;;;;;;;8.27;1.60;;;6.90;99.90;;;;;;5007220;28;20022;-51
2022/01/18 11:26:43;;;;;;;10.07;2.15;;;7.00;99.90;;;;;;4992287;28;20439;-54
2022/01/18 11:29:10;;;;;;;8.63;1.73;;;7.00;99.90;;;;;;5012437;28;20014;-52
2022/01/18 11:31:36;;;;;;;6.53;2.20;;;7.00;99.90;;;;;;5012927;28;20057;-55
2022/01/18 11:34:05;;;;;;;6.70;1.52;;;7.00;99.90;;;;;;5012730;28;20076;-55
2022/01/18 11:36:39;;;;;;;7.40;2.15;;;7.10;99.90;;;;;;5012108;28;20057;-50
2022/01/18 11:39:07;;;;;;;10.57;1.75;;;7.10;99.90;;;;;;5011456;28;20448;-54
2022/01/18 11:41:35;;;;;;;7.40;2.58;;;7.10;99.90;;;;;;5011811;28;20091;-55
2022/01/18 11:44:19;;;;;;;6.78;1.50;;;7.00;99.90;;;;;;5010587;28;20064;-55
2022/01/18 11:46:48;;;;;;;7.97;2.10;;;7.10;99.90;;;;;;5011006;28;20832;-53
2022/01/18 11:49:18;;;;;;;9.82;2.33;;;7.10;99.90;;;;;;5011259;28;20123;-56
2022/01/18 11:52:05;;;;;;;7.75;2.03;;;7.10;99.90;;;;;;5011392;28;20029;-55
2022/01/18 11:54:43;;;;;;;6.55;1.30;;;7.10;99.90;;;;;;5011301;28;20403;-53
2022/01/18 11:57:24;;;;;;;3.60;1.55;;;7.10;99.90;;;;;;5011175;28;20084;-53
2022/01/18 12:00:00;;;;;;;6.47;1.60;;;7.10;99.90;;;;;;4993602;28;20510;-58
2022/01/18 12:02:26;;;;;;;9.90;2.80;;;7.10;99.90;;;;;;5010310;28;20580;-56
2022/01/18 12:04:54;;;;;;;5.03;1.80;;;7.10;99.90;;;;;;4993724;28;20032;-55
2022/01/18 12:07:49;;;;;;;6.90;1.80;;;7.10;99.90;;;;;;5010856;28;20018;-55
2022/01/18 12:10:30;;;;;;;6.80;1.55;;;7.00;99.90;;;;;;4998323;28;20524;-56
2022/01/18 12:13:01;;;;;;;8.80;2.85;;;7.00;99.90;;;;;;5010580;28;20285;-54
2022/01/18 12:15:32;;;;;;;8.60;2.05;;;7.00;99.90;;;;;;5010769;28;20057;-56
2022/01/18 12:17:59;;;;;;;9.70;2.08;;;7.00;99.90;;;;;;5011742;28;20416;-52
2022/01/18 12:20:42;;;;;;;7.20;1.80;;;7.00;99.90;;;;;;5010717;28;20510;-51
2022/01/18 12:23:42;;;;;;;6.78;2.25;;;7.00;99.90;;;;;;5010096;28;20034;-58
2022/01/18 12:26:41;;;;;;;3.72;1.42;;;7.00;99.90;;;;;;5011032;28;20045;-54
2022/01/18 12:32:05;;;;;;;7.85;1.35;;;7.00;99.90;;;;;;5010431;28;20036;-55
2022/01/18 12:34:49;;;;;;;1.25;0.98;;;7.00;99.90;;;;;;5010621;28;20029;-55
2022/01/18 12:37:17;;;;;;;5.03;1.40;;;7.00;99.90;;;;;;5010736;28;20643;-52
2022/01/18 12:45:22;;;;;;;5.85;1.80;;;6.90;99.90;;;;;;5009606;28;20109;-53
2022/01/18 12:47:49;;;;;;;5.57;1.98;;;6.80;99.90;;;;;;5009220;28;20029;-55
2022/01/18 12:50:23;;;;;;;2.33;1.42;;;6.80;99.90;;;;;;5010572;28;20033;-51
2022/01/18 12:52:54;;;;;;;3.83;1.27;;;6.80;99.90;;;;;;5010513;28;20017;-53
2022/01/18 12:55:45;;;;;;;5.28;1.73;;;6.80;99.90;;;;;;4993331;28;20022;-56
2022/01/18 12:58:28;;;;;;;4.20;1.95;;;6.70;99.90;;;;;;5011105;28;20125;-53
2022/01/18 13:01:00;;;;;;;5.72;1.85;;;6.70;99.90;;;;;;5011070;28;20022;-55
2022/01/18 13:03:47;;;;;;;7.35;2.03;;;6.60;99.90;;;;;;5010522;28;20018;-54
2022/01/18 13:06:20;;;;;;;4.80;1.90;;;6.60;99.90;;;;;;5010326;28;20029;-56
2022/01/18 13:08:52;;;;;;;4.32;1.92;;;6.60;99.90;;;;;;5010970;28;20026;-56
2022/01/18 13:11:32;;;;;;;8.20;1.80;;;6.60;99.90;;;;;;5011222;28;20010;-58
2022/01/18 13:14:09;;;;;;;4.28;2.08;;;6.60;99.90;;;;;;5010765;28;20022;-59
2022/01/18 13:27:31;;;;;;;4.35;1.38;;;6.50;99.90;;;;;;5009976;28;20037;-56
2022/01/18 13:30:10;;;;;;;3.38;1.25;;;6.40;99.90;;;;;;5010535;28;20088;-57
2022/01/18 13:32:37;;;;;;;2.78;1.27;;;6.40;99.90;;;;;;5009546;28;20034;-54
2022/01/18 13:35:05;;;;;;;3.80;1.13;;;6.40;99.90;;;;;;5010244;28;20481;-52
2022/01/18 13:37:33;;;;;;;3.38;1.45;;;6.50;99.90;;;;;;5010386;28;20034;-56
2022/01/18 13:40:02;;;;;;;1.55;1.30;;;6.50;99.90;;;;;;5010527;28;20393;-54
2022/01/18 13:42:40;;;;;;;2.53;1.35;;;6.40;99.90;;;;;;5008999;28;20085;-52
2022/01/18 13:45:17;;;;;;;3.85;1.52;;;6.40;99.90;;;;;;5009627;28;20439;-51
2022/01/18 13:47:58;;;;;;;1.92;1.13;;;6.50;99.90;;;;;;5009590;28;20080;-55
2022/01/18 13:50:55;;;;;;;1.67;0.70;;;6.40;99.90;;;;;;5009406;28;20018;-57
2022/01/18 13:53:31;;;;;;;3.30;1.55;;;6.40;99.90;;;;;;5009545;28;20025;-53
2022/01/18 13:56:00;;;;;;;2.63;1.80;;;6.40;99.90;;;;;;5009994;28;20042;-55
2022/01/18 13:58:27;;;;;;;3.80;1.42;;;6.30;99.90;;;;;;5009536;28;20033;-52
2022/01/18 14:01:35;;;;;;;4.32;1.65;;;6.30;99.90;;;;;;5009855;28;20022;-54
2022/01/18 14:04:13;;;;;;;3.45;1.77;;;6.30;99.90;;;;;;4986876;28;20499;-55
2022/01/18 14:06:42;;;;;;;1.90;1.55;;;6.30;99.90;;;;;;5009568;28;20032;-54
2022/01/18 14:09:09;;;;;;;1.67;1.50;;;6.20;99.90;;;;;;5010387;28;20053;-57
2022/01/18 14:11:36;;;;;;;1.67;1.38;;;6.20;99.90;;;;;;5009117;28;20017;-52
2022/01/18 14:14:33;;;;;;;1.85;1.75;;;6.20;99.90;;;;;;5009544;28;20443;-55
2022/01/18 14:17:05;;;;;;;3.38;1.67;;;6.20;99.90;;;;;;5009190;28;20025;-53
2022/01/18 14:19:34;;;;;;;2.10;1.27;;;6.20;99.90;;;;;;5008786;28;20026;-53
2022/01/18 14:22:23;;;;;;;2.88;1.48;;;6.10;99.90;;;;;;5008592;28;20034;-57
2022/01/18 14:24:57;;;;;;;1.73;1.60;;;6.10;99.90;;;;;;5009198;28;20103;-53
2022/01/18 14:27:32;;;;;;;1.30;1.17;;;6.00;99.90;;;;;;4991493;28;20048;-53
2022/01/18 14:30:00;;;;;;;1.27;1.17;;;6.00;99.90;;;;;;5008498;28;20488;-54